sensor_id;sensor_type;location;lat;lon;timestamp;pressure;altitude;pressure_sealevel;temperature;humidity
78673;BME280;67988;60.086;30.354;2023-07-22T00:00:46;100045.03;;;17.12;67.90
78673;BME280;67988;60.086;30.354;2023-07-22T00:03:13;100036.13;;;17.11;68.17
78673;BME280;67988;60.086;30.354;2023-07-22T00:05:41;100053.94;;;17.12;67.99
78673;BME280;67988;60.086;30.354;2023-07-22T00:08:09;100077.63;;;17.09;67.88
78673;BME280;67988;60.086;30.354;2023-07-22T00:10:41;100042.50;;;17.10;68.04
78673;BME280;67988;60.086;30.354;2023-07-22T00:13:09;100032.94;;;17.08;67.99
78673;BME280;67988;60.086;30.354;2023-07-22T00:15:37;100039.16;;;17.08;68.25
78673;BME280;67988;60.086;30.354;2023-07-22T00:18:04;100037.31;;;17.09;68.31
78673;BME280;67988;60.086;30.354;2023-07-22T00:20:31;100040.53;;;17.04;68.61
78673;BME280;67988;60.086;30.354;2023-07-22T00:22:58;100047.59;;;17.05;68.37
78673;BME280;67988;60.086;30.354;2023-07-22T00:25:26;100044.91;;;17.05;68.31
78673;BME280;67988;60.086;30.354;2023-07-22T00:27:54;100061.66;;;17.07;68.31
78673;BME280;67988;60.086;30.354;2023-07-22T00:30:22;100025.91;;;17.07;68.98
78673;BME280;67988;60.086;30.354;2023-07-22T00:32:51;100044.06;;;17.05;68.58
78673;BME280;67988;60.086;30.354;2023-07-22T00:35:18;100058.50;;;17.04;69.22
78673;BME280;67988;60.086;30.354;2023-07-22T00:37:45;100040.22;;;16.99;69.23
78673;BME280;67988;60.086;30.354;2023-07-22T00:40:12;100062.22;;;17.03;69.78
78673;BME280;67988;60.086;30.354;2023-07-22T00:42:41;100033.09;;;16.84;70.02
78673;BME280;67988;60.086;30.354;2023-07-22T00:45:10;100040.53;;;17.04;70.01
78673;BME280;67988;60.086;30.354;2023-07-22T00:47:38;100043.91;;;17.06;69.78
78673;BME280;67988;60.086;30.354;2023-07-22T00:50:07;100044.72;;;17.07;70.09
78673;BME280;67988;60.086;30.354;2023-07-22T00:52:34;100054.66;;;17.06;70.32
78673;BME280;67988;60.086;30.354;2023-07-22T00:55:02;100043.91;;;17.06;70.35
78673;BME280;67988;60.086;30.354;2023-07-22T00:57:30;100053.50;;;17.01;70.50
78673;BME280;67988;60.086;30.354;2023-07-22T00:59:58;100048.13;;;17.01;70.55
78673;BME280;67988;60.086;30.354;2023-07-22T01:02:27;100033.19;;;16.98;70.62
78673;BME280;67988;60.086;30.354;2023-07-22T01:04:54;100045.97;;;16.96;70.64
78673;BME280;67988;60.086;30.354;2023-07-22T01:07:21;100032.19;;;16.91;70.60
78673;BME280;67988;60.086;30.354;2023-07-22T01:09:49;100032.53;;;16.96;70.38
78673;BME280;67988;60.086;30.354;2023-07-22T01:12:22;100048.53;;;16.90;70.86
78673;BME280;67988;60.086;30.354;2023-07-22T01:14:50;100053.41;;;16.86;70.42
78673;BME280;67988;60.086;30.354;2023-07-22T01:17:17;100073.25;;;16.85;70.58
78673;BME280;67988;60.086;30.354;2023-07-22T01:19:46;100059.59;;;16.87;70.56
78673;BME280;67988;60.086;30.354;2023-07-22T01:22:14;100067.88;;;16.85;70.36
78673;BME280;67988;60.086;30.354;2023-07-22T01:24:43;100040.31;;;16.83;69.98
78673;BME280;67988;60.086;30.354;2023-07-22T01:27:11;100054.94;;;16.81;69.91
78673;BME280;67988;60.086;30.354;2023-07-22T01:29:39;100078.28;;;16.80;69.66
78673;BME280;67988;60.086;30.354;2023-07-22T01:32:07;100049.75;;;16.79;69.88
78673;BME280;67988;60.086;30.354;2023-07-22T01:34:35;100059.47;;;16.80;70.46
78673;BME280;67988;60.086;30.354;2023-07-22T01:37:02;100061.69;;;16.77;70.56
78673;BME280;67988;60.086;30.354;2023-07-22T01:39:30;100060.50;;;16.79;70.50
78673;BME280;67988;60.086;30.354;2023-07-22T01:41:59;100051.59;;;16.79;70.24
78673;BME280;67988;60.086;30.354;2023-07-22T01:44:26;100052.06;;;16.82;70.51
78673;BME280;67988;60.086;30.354;2023-07-22T01:46:54;100042.03;;;16.76;70.79
78673;BME280;67988;60.086;30.354;2023-07-22T01:49:21;100048.38;;;16.83;70.82
78673;BME280;67988;60.086;30.354;2023-07-22T01:51:50;100058.47;;;16.81;70.83
78673;BME280;67988;60.086;30.354;2023-07-22T01:54:18;100047.91;;;16.80;70.65
78673;BME280;67988;60.086;30.354;2023-07-22T01:56:45;100026.88;;;16.83;70.37
78673;BME280;67988;60.086;30.354;2023-07-22T01:59:14;100051.06;;;16.83;70.10
78673;BME280;67988;60.086;30.354;2023-07-22T02:01:41;100052.91;;;16.83;70.39
78673;BME280;67988;60.086;30.354;2023-07-22T02:04:08;100054.75;;;16.82;70.44
78673;BME280;67988;60.086;30.354;2023-07-22T02:06:36;100052.44;;;16.79;70.57
78673;BME280;67988;60.086;30.354;2023-07-22T02:09:04;100053.94;;;16.82;70.44
78673;BME280;67988;60.086;30.354;2023-07-22T02:11:35;100053.59;;;16.85;70.59
78673;BME280;67988;60.086;30.354;2023-07-22T02:14:02;100056.38;;;16.91;70.21
78673;BME280;67988;60.086;30.354;2023-07-22T02:16:34;100056.97;;;16.79;69.98
78673;BME280;67988;60.086;30.354;2023-07-22T02:19:02;100058.75;;;16.86;70.01
78673;BME280;67988;60.086;30.354;2023-07-22T02:21:35;100059.59;;;16.87;70.51
78673;BME280;67988;60.086;30.354;2023-07-22T02:24:03;100061.44;;;16.86;70.38
78673;BME280;67988;60.086;30.354;2023-07-22T02:26:30;100065.28;;;16.92;70.17
78673;BME280;67988;60.086;30.354;2023-07-22T02:28:58;100066.50;;;16.89;70.05
78673;BME280;67988;60.086;30.354;2023-07-22T02:31:25;100078.94;;;16.90;69.55
78673;BME280;67988;60.086;30.354;2023-07-22T02:33:54;100052.16;;;16.97;69.28
78673;BME280;67988;60.086;30.354;2023-07-22T02:36:21;100076.19;;;16.98;68.97
78673;BME280;67988;60.086;30.354;2023-07-22T02:38:48;100064.97;;;16.95;69.36
78673;BME280;67988;60.086;30.354;2023-07-22T02:41:15;100002.16;;;16.57;69.11
78673;BME280;67988;60.086;30.354;2023-07-22T02:43:42;100068.09;;;17.06;69.11
78673;BME280;67988;60.086;30.354;2023-07-22T02:46:09;100074.78;;;17.10;68.58
78673;BME280;67988;60.086;30.354;2023-07-22T02:48:37;100070.94;;;17.05;68.75
78673;BME280;67988;60.086;30.354;2023-07-22T02:51:07;100068.41;;;17.03;68.75
78673;BME280;67988;60.086;30.354;2023-07-22T02:53:35;100075.25;;;17.14;68.55
78673;BME280;67988;60.086;30.354;2023-07-22T02:56:04;100065.00;;;17.18;68.79
78673;BME280;67988;60.086;30.354;2023-07-22T02:58:32;100069.66;;;17.24;68.35
78673;BME280;67988;60.086;30.354;2023-07-22T03:01:00;100062.59;;;17.23;68.32
78673;BME280;67988;60.086;30.354;2023-07-22T03:03:27;100074.06;;;17.17;68.30
78673;BME280;67988;60.086;30.354;2023-07-22T03:05:54;100070.69;;;17.23;68.39
78673;BME280;67988;60.086;30.354;2023-07-22T03:08:24;100075.38;;;17.21;68.61
78673;BME280;67988;60.086;30.354;2023-07-22T03:10:51;100074.66;;;17.27;68.47
78673;BME280;67988;60.086;30.354;2023-07-22T03:13:19;100067.44;;;17.27;68.07
78673;BME280;67988;60.086;30.354;2023-07-22T03:15:46;100075.34;;;17.29;68.46
78673;BME280;67988;60.086;30.354;2023-07-22T03:18:13;100074.81;;;17.33;67.84
78673;BME280;67988;60.086;30.354;2023-07-22T03:20:41;100061.28;;;17.41;67.72
78673;BME280;67988;60.086;30.354;2023-07-22T03:23:08;100076.28;;;17.36;68.03
78673;BME280;67988;60.086;30.354;2023-07-22T03:25:36;100052.28;;;17.34;68.20
78673;BME280;67988;60.086;30.354;2023-07-22T03:28:05;100051.72;;;17.16;68.02
78673;BME280;67988;60.086;30.354;2023-07-22T03:30:33;100086.16;;;17.43;67.69
78673;BME280;67988;60.086;30.354;2023-07-22T03:33:00;100076.72;;;17.47;67.48
78673;BME280;67988;60.086;30.354;2023-07-22T03:35:27;100089.81;;;17.50;67.53
78673;BME280;67988;60.086;30.354;2023-07-22T03:37:55;100085.16;;;17.44;68.15
78673;BME280;67988;60.086;30.354;2023-07-22T03:40:22;100092.53;;;17.42;68.43
78673;BME280;67988;60.086;30.354;2023-07-22T03:42:55;100085.69;;;17.40;68.27
78673;BME280;67988;60.086;30.354;2023-07-22T03:45:23;100099.59;;;17.43;68.40
78673;BME280;67988;60.086;30.354;2023-07-22T03:47:52;100078.63;;;17.39;68.12
78673;BME280;67988;60.086;30.354;2023-07-22T03:50:20;100083.63;;;17.42;68.41
78673;BME280;67988;60.086;30.354;2023-07-22T03:52:47;100088.38;;;17.40;68.46
78673;BME280;67988;60.086;30.354;2023-07-22T03:55:14;100054.00;;;17.27;68.32
78673;BME280;67988;60.086;30.354;2023-07-22T03:57:41;100097.34;;;17.55;67.91
78673;BME280;67988;60.086;30.354;2023-07-22T04:00:11;100092.31;;;17.52;68.31
78673;BME280;67988;60.086;30.354;2023-07-22T04:02:39;100091.75;;;17.56;68.31
78673;BME280;67988;60.086;30.354;2023-07-22T04:05:07;100096.34;;;17.56;67.86
78673;BME280;67988;60.086;30.354;2023-07-22T04:07:34;100097.34;;;17.55;68.23
78673;BME280;67988;60.086;30.354;2023-07-22T04:10:02;100101.31;;;17.67;67.40
78673;BME280;67988;60.086;30.354;2023-07-22T04:12:29;100107.31;;;17.77;67.23
78673;BME280;67988;60.086;30.354;2023-07-22T04:14:57;100100.53;;;17.81;66.97
78673;BME280;67988;60.086;30.354;2023-07-22T04:17:25;100098.19;;;17.78;66.77
78673;BME280;67988;60.086;30.354;2023-07-22T04:19:52;100110.91;;;17.84;66.65
78673;BME280;67988;60.086;30.354;2023-07-22T04:22:20;100095.88;;;17.75;67.10
78673;BME280;67988;60.086;30.354;2023-07-22T04:24:47;100090.31;;;17.77;67.22
78673;BME280;67988;60.086;30.354;2023-07-22T04:27:16;100097.53;;;17.76;67.01
78673;BME280;67988;60.086;30.354;2023-07-22T04:29:43;100101.72;;;17.79;67.43
78673;BME280;67988;60.086;30.354;2023-07-22T04:32:10;100084.34;;;17.58;67.42
78673;BME280;67988;60.086;30.354;2023-07-22T04:34:39;100069.19;;;17.43;67.85
78673;BME280;67988;60.086;30.354;2023-07-22T04:37:06;100114.94;;;17.66;67.59
78673;BME280;67988;60.086;30.354;2023-07-22T04:39:33;100081.13;;;17.40;68.59
78673;BME280;67988;60.086;30.354;2023-07-22T04:42:00;100108.50;;;17.44;68.78
78673;BME280;67988;60.086;30.354;2023-07-22T04:44:27;100109.28;;;17.61;68.67
78673;BME280;67988;60.086;30.354;2023-07-22T04:46:55;100115.50;;;17.53;69.02
78673;BME280;67988;60.086;30.354;2023-07-22T04:49:22;100115.63;;;17.37;69.69
78673;BME280;67988;60.086;30.354;2023-07-22T04:51:51;100124.66;;;17.44;69.33
78673;BME280;67988;60.086;30.354;2023-07-22T04:54:18;100094.41;;;17.42;69.09
78673;BME280;67988;60.086;30.354;2023-07-22T04:56:45;100122.19;;;17.57;68.98
78673;BME280;67988;60.086;30.354;2023-07-22T04:59:13;100127.88;;;17.70;68.70
78673;BME280;67988;60.086;30.354;2023-07-22T05:01:41;100120.97;;;17.90;67.94
78673;BME280;67988;60.086;30.354;2023-07-22T05:04:09;100115.94;;;18.10;67.27
78673;BME280;67988;60.086;30.354;2023-07-22T05:06:36;100127.00;;;17.92;67.18
78673;BME280;67988;60.086;30.354;2023-07-22T05:09:05;100115.78;;;17.89;68.12
78673;BME280;67988;60.086;30.354;2023-07-22T05:11:32;100122.66;;;17.91;67.80
78673;BME280;67988;60.086;30.354;2023-07-22T05:13:59;100116.50;;;17.83;68.27
78673;BME280;67988;60.086;30.354;2023-07-22T05:16:26;100088.88;;;17.89;67.39
78673;BME280;67988;60.086;30.354;2023-07-22T05:18:53;100130.59;;;17.85;67.43
78673;BME280;67988;60.086;30.354;2023-07-22T05:21:20;100131.69;;;17.76;68.20
78673;BME280;67988;60.086;30.354;2023-07-22T05:23:48;100128.16;;;17.75;67.54
78673;BME280;67988;60.086;30.354;2023-07-22T05:26:16;100113.22;;;17.73;67.71
78673;BME280;67988;60.086;30.354;2023-07-22T05:28:43;100106.72;;;17.67;67.66
78673;BME280;67988;60.086;30.354;2023-07-22T05:31:11;100097.38;;;17.78;67.94
78673;BME280;67988;60.086;30.354;2023-07-22T05:33:38;100136.59;;;17.72;68.16
78673;BME280;67988;60.086;30.354;2023-07-22T05:36:05;100149.56;;;17.69;68.62
78673;BME280;67988;60.086;30.354;2023-07-22T05:38:32;100132.94;;;17.65;68.50
78673;BME280;67988;60.086;30.354;2023-07-22T05:40:59;100133.72;;;17.74;68.24
78673;BME280;67988;60.086;30.354;2023-07-22T05:43:28;100141.03;;;17.65;68.12
78673;BME280;67988;60.086;30.354;2023-07-22T05:45:55;100146.22;;;17.67;68.21
78673;BME280;67988;60.086;30.354;2023-07-22T05:48:22;100120.28;;;17.43;68.20
78673;BME280;67988;60.086;30.354;2023-07-22T05:50:49;100136.91;;;17.46;68.37
78673;BME280;67988;60.086;30.354;2023-07-22T05:53:17;100138.34;;;17.57;68.71
78673;BME280;67988;60.086;30.354;2023-07-22T05:55:44;100144.38;;;17.67;68.37
78673;BME280;67988;60.086;30.354;2023-07-22T05:58:15;100151.06;;;17.71;68.07
78673;BME280;67988;60.086;30.354;2023-07-22T06:00:44;100156.91;;;17.75;67.89
78673;BME280;67988;60.086;30.354;2023-07-22T06:03:12;100145.31;;;17.74;67.57
78673;BME280;67988;60.086;30.354;2023-07-22T06:05:39;100126.22;;;17.84;67.29
78673;BME280;67988;60.086;30.354;2023-07-22T06:08:06;100153.47;;;17.89;65.92
78673;BME280;67988;60.086;30.354;2023-07-22T06:10:34;100140.78;;;17.75;67.03
78673;BME280;67988;60.086;30.354;2023-07-22T06:13:03;100165.91;;;17.67;67.74
78673;BME280;67988;60.086;30.354;2023-07-22T06:15:30;100139.81;;;17.68;67.23
78673;BME280;67988;60.086;30.354;2023-07-22T06:17:59;100157.09;;;17.73;66.97
78673;BME280;67988;60.086;30.354;2023-07-22T06:20:27;100147.06;;;17.67;66.87
78673;BME280;67988;60.086;30.354;2023-07-22T06:22:54;100149.97;;;17.80;66.33
78673;BME280;67988;60.086;30.354;2023-07-22T06:25:21;100144.59;;;17.80;66.42
78673;BME280;67988;60.086;30.354;2023-07-22T06:27:48;100165.66;;;17.77;66.48
78673;BME280;67988;60.086;30.354;2023-07-22T06:30:16;100168.16;;;17.78;66.60
78673;BME280;67988;60.086;30.354;2023-07-22T06:32:43;100144.19;;;17.69;66.73
78673;BME280;67988;60.086;30.354;2023-07-22T06:35:11;100124.34;;;17.70;66.16
78673;BME280;67988;60.086;30.354;2023-07-22T06:37:39;100155.09;;;18.13;65.43
78673;BME280;67988;60.086;30.354;2023-07-22T06:40:07;100145.59;;;18.02;64.88
78673;BME280;67988;60.086;30.354;2023-07-22T06:42:34;100144.34;;;18.13;64.78
78673;BME280;67988;60.086;30.354;2023-07-22T06:45:02;100168.53;;;18.35;65.07
78673;BME280;67988;60.086;30.354;2023-07-22T06:47:30;100170.63;;;18.11;64.43
78673;BME280;67988;60.086;30.354;2023-07-22T06:49:57;100159.09;;;18.17;65.22
78673;BME280;67988;60.086;30.354;2023-07-22T06:52:26;100164.72;;;18.30;64.46
78673;BME280;67988;60.086;30.354;2023-07-22T06:54:54;100182.31;;;18.18;64.87
78673;BME280;67988;60.086;30.354;2023-07-22T06:57:21;100177.06;;;18.24;65.06
78673;BME280;67988;60.086;30.354;2023-07-22T06:59:48;100167.72;;;18.12;65.37
78673;BME280;67988;60.086;30.354;2023-07-22T07:02:16;100166.84;;;18.20;65.38
78673;BME280;67988;60.086;30.354;2023-07-22T07:04:43;100185.16;;;18.02;65.89
78673;BME280;67988;60.086;30.354;2023-07-22T07:07:11;100169.41;;;18.13;65.25
78673;BME280;67988;60.086;30.354;2023-07-22T07:09:40;100177.91;;;18.02;65.27
78673;BME280;67988;60.086;30.354;2023-07-22T07:12:07;100180.91;;;18.07;65.40
78673;BME280;67988;60.086;30.354;2023-07-22T07:14:35;100179.91;;;18.23;65.28
78673;BME280;67988;60.086;30.354;2023-07-22T07:17:03;100172.03;;;18.21;64.81
78673;BME280;67988;60.086;30.354;2023-07-22T07:19:30;100181.63;;;18.38;64.81
78673;BME280;67988;60.086;30.354;2023-07-22T07:21:57;100185.72;;;18.34;64.99
78673;BME280;67988;60.086;30.354;2023-07-22T07:24:24;100168.22;;;18.16;65.24
78673;BME280;67988;60.086;30.354;2023-07-22T07:26:54;100194.44;;;18.22;65.48
78673;BME280;67988;60.086;30.354;2023-07-22T07:29:21;100216.16;;;18.20;65.61
78673;BME280;67988;60.086;30.354;2023-07-22T07:31:48;100164.91;;;18.06;65.81
78673;BME280;67988;60.086;30.354;2023-07-22T07:34:15;100213.78;;;18.17;65.17
78673;BME280;67988;60.086;30.354;2023-07-22T07:36:42;100230.44;;;18.21;65.62
78673;BME280;67988;60.086;30.354;2023-07-22T07:39:10;100200.41;;;18.32;65.50
78673;BME280;67988;60.086;30.354;2023-07-22T07:41:37;100184.09;;;18.48;64.93
78673;BME280;67988;60.086;30.354;2023-07-22T07:44:06;100199.28;;;18.78;63.94
78673;BME280;67988;60.086;30.354;2023-07-22T07:46:33;100155.19;;;18.42;64.13
78673;BME280;67988;60.086;30.354;2023-07-22T07:49:01;100221.44;;;18.51;63.27
78673;BME280;67988;60.086;30.354;2023-07-22T07:51:30;100205.97;;;18.45;63.41
78673;BME280;67988;60.086;30.354;2023-07-22T07:53:59;100217.31;;;18.40;62.66
78673;BME280;67988;60.086;30.354;2023-07-22T07:56:26;100200.41;;;18.32;62.57
78673;BME280;67988;60.086;30.354;2023-07-22T07:58:54;100187.38;;;18.35;62.46
78673;BME280;67988;60.086;30.354;2023-07-22T08:01:23;100202.81;;;18.42;62.31
78673;BME280;67988;60.086;30.354;2023-07-22T08:03:50;100196.44;;;18.43;61.65
78673;BME280;67988;60.086;30.354;2023-07-22T08:06:17;100196.13;;;18.75;61.49
78673;BME280;67988;60.086;30.354;2023-07-22T08:08:45;100202.75;;;18.87;60.77
78673;BME280;67988;60.086;30.354;2023-07-22T08:11:13;100223.09;;;18.75;60.80
78673;BME280;67988;60.086;30.354;2023-07-22T08:13:42;100214.97;;;18.60;60.58
78673;BME280;67988;60.086;30.354;2023-07-22T08:16:12;100171.97;;;18.44;60.69
78673;BME280;67988;60.086;30.354;2023-07-22T08:18:41;100231.56;;;18.49;60.82
78673;BME280;67988;60.086;30.354;2023-07-22T08:21:09;100234.91;;;18.51;61.27
78673;BME280;67988;60.086;30.354;2023-07-22T08:23:37;100214.56;;;18.49;61.06
78673;BME280;67988;60.086;30.354;2023-07-22T08:26:04;100237.91;;;18.56;61.18
78673;BME280;67988;60.086;30.354;2023-07-22T08:28:32;100209.72;;;18.82;60.79
78673;BME280;67988;60.086;30.354;2023-07-22T08:30:59;100220.94;;;18.70;60.92
78673;BME280;67988;60.086;30.354;2023-07-22T08:33:27;100234.44;;;18.70;61.25
78673;BME280;67988;60.086;30.354;2023-07-22T08:35:56;100223.81;;;18.84;60.84
78673;BME280;67988;60.086;30.354;2023-07-22T08:38:23;100252.47;;;18.99;60.81
78673;BME280;67988;60.086;30.354;2023-07-22T08:40:50;100244.53;;;18.68;61.12
78673;BME280;67988;60.086;30.354;2023-07-22T08:43:20;100245.22;;;18.48;62.05
78673;BME280;67988;60.086;30.354;2023-07-22T08:45:48;100262.09;;;18.42;62.37
78673;BME280;67988;60.086;30.354;2023-07-22T08:48:17;100249.06;;;18.30;62.42
78673;BME280;67988;60.086;30.354;2023-07-22T08:50:48;100242.34;;;18.49;61.88
78673;BME280;67988;60.086;30.354;2023-07-22T08:53:18;100224.13;;;18.51;61.29
78673;BME280;67988;60.086;30.354;2023-07-22T08:55:46;100264.06;;;18.70;60.89
78673;BME280;67988;60.086;30.354;2023-07-22T08:58:14;100254.91;;;18.57;60.45
78673;BME280;67988;60.086;30.354;2023-07-22T09:00:42;100255.44;;;18.75;60.44
78673;BME280;67988;60.086;30.354;2023-07-22T09:03:11;100262.09;;;18.64;60.95
78673;BME280;67988;60.086;30.354;2023-07-22T09:05:38;100267.34;;;18.80;60.41
78673;BME280;67988;60.086;30.354;2023-07-22T09:08:07;100254.44;;;18.91;60.36
78673;BME280;67988;60.086;30.354;2023-07-22T09:10:37;100261.13;;;19.09;58.63
78673;BME280;67988;60.086;30.354;2023-07-22T09:13:04;100247.38;;;19.34;57.44
78673;BME280;67988;60.086;30.354;2023-07-22T09:15:35;100251.13;;;19.47;56.42
78673;BME280;67988;60.086;30.354;2023-07-22T09:18:03;100273.31;;;19.35;57.27
78673;BME280;67988;60.086;30.354;2023-07-22T09:20:31;100293.22;;;19.34;55.25
78673;BME280;67988;60.086;30.354;2023-07-22T09:22:59;100299.72;;;19.10;55.24
78673;BME280;67988;60.086;30.354;2023-07-22T09:25:27;100281.03;;;19.23;54.86
78673;BME280;67988;60.086;30.354;2023-07-22T09:27:58;100278.25;;;19.31;54.86
78673;BME280;67988;60.086;30.354;2023-07-22T09:30:27;100293.91;;;19.50;54.41
78673;BME280;67988;60.086;30.354;2023-07-22T09:32:56;100266.63;;;19.16;54.02
78673;BME280;67988;60.086;30.354;2023-07-22T09:35:26;100332.97;;;19.25;53.49
78673;BME280;67988;60.086;30.354;2023-07-22T09:37:55;100305.03;;;19.18;54.49
78673;BME280;67988;60.086;30.354;2023-07-22T09:40:23;100317.63;;;19.55;53.64
78673;BME280;67988;60.086;30.354;2023-07-22T09:42:52;100306.84;;;19.55;55.67
78673;BME280;67988;60.086;30.354;2023-07-22T09:45:22;100281.22;;;19.66;55.98
78673;BME280;67988;60.086;30.354;2023-07-22T09:47:50;100295.47;;;19.74;56.48
78673;BME280;67988;60.086;30.354;2023-07-22T09:50:19;100300.00;;;19.88;53.14
78673;BME280;67988;60.086;30.354;2023-07-22T09:52:49;100247.59;;;20.04;52.20
78673;BME280;67988;60.086;30.354;2023-07-22T09:55:17;100274.16;;;19.64;50.66
78673;BME280;67988;60.086;30.354;2023-07-22T09:57:46;100294.16;;;19.41;51.35
78673;BME280;67988;60.086;30.354;2023-07-22T10:00:15;100302.53;;;19.75;51.00
78673;BME280;67988;60.086;30.354;2023-07-22T10:02:47;100301.19;;;20.00;50.52
78673;BME280;67988;60.086;30.354;2023-07-22T10:05:16;100288.44;;;19.94;51.92
78673;BME280;67988;60.086;30.354;2023-07-22T10:07:46;100311.69;;;20.10;50.24
78673;BME280;67988;60.086;30.354;2023-07-22T10:10:16;100298.50;;;20.22;51.18
78673;BME280;67988;60.086;30.354;2023-07-22T10:12:45;100294.81;;;20.08;50.87
78673;BME280;67988;60.086;30.354;2023-07-22T10:15:14;100294.41;;;19.90;49.72
78673;BME280;67988;60.086;30.354;2023-07-22T10:17:44;100313.41;;;19.96;49.99
78673;BME280;67988;60.086;30.354;2023-07-22T10:20:13;100315.31;;;20.02;50.94
78673;BME280;67988;60.086;30.354;2023-07-22T10:22:43;100354.56;;;19.84;51.01
78673;BME280;67988;60.086;30.354;2023-07-22T10:25:12;100332.03;;;19.77;50.90
78673;BME280;67988;60.086;30.354;2023-07-22T10:27:40;100321.31;;;19.83;51.12
78673;BME280;67988;60.086;30.354;2023-07-22T10:30:08;100297.78;;;19.77;51.56
78673;BME280;67988;60.086;30.354;2023-07-22T10:32:38;100308.22;;;20.16;51.07
78673;BME280;67988;60.086;30.354;2023-07-22T10:35:08;100300.34;;;20.36;46.49
78673;BME280;67988;60.086;30.354;2023-07-22T10:37:39;100280.50;;;20.71;46.00
78673;BME280;67988;60.086;30.354;2023-07-22T10:40:18;100319.41;;;20.98;45.49
78673;BME280;67988;60.086;30.354;2023-07-22T10:42:53;100310.84;;;20.31;46.52
78673;BME280;67988;60.086;30.354;2023-07-22T10:45:25;100300.41;;;20.42;46.70
78673;BME280;67988;60.086;30.354;2023-07-22T10:48:06;100327.22;;;20.08;44.44
78673;BME280;67988;60.086;30.354;2023-07-22T10:50:41;100314.91;;;20.20;45.54
78673;BME280;67988;60.086;30.354;2023-07-22T10:53:12;100270.72;;;20.07;47.01
78673;BME280;67988;60.086;30.354;2023-07-22T10:56:05;100317.06;;;20.10;45.95
78673;BME280;67988;60.086;30.354;2023-07-22T10:58:33;100319.50;;;20.05;44.24
78673;BME280;67988;60.086;30.354;2023-07-22T11:01:30;100349.72;;;19.94;45.06
78673;BME280;67988;60.086;30.354;2023-07-22T11:04:14;100319.88;;;20.02;45.59
78673;BME280;67988;60.086;30.354;2023-07-22T11:06:55;100306.06;;;20.48;46.24
78673;BME280;67988;60.086;30.354;2023-07-22T11:09:50;100313.13;;;20.27;47.40
78673;BME280;67988;60.086;30.354;2023-07-22T11:12:18;100335.56;;;20.28;47.18
78673;BME280;67988;60.086;30.354;2023-07-22T11:14:48;100341.72;;;20.36;45.87
78673;BME280;67988;60.086;30.354;2023-07-22T11:17:16;100303.09;;;20.42;44.57
78673;BME280;67988;60.086;30.354;2023-07-22T11:19:44;100280.06;;;20.46;44.61
78673;BME280;67988;60.086;30.354;2023-07-22T11:22:11;100296.09;;;20.97;44.34
78673;BME280;67988;60.086;30.354;2023-07-22T11:24:41;100332.88;;;21.88;43.78
78673;BME280;67988;60.086;30.354;2023-07-22T11:27:09;100311.59;;;22.33;42.07
78673;BME280;67988;60.086;30.354;2023-07-22T11:29:36;100305.56;;;22.44;41.80
78673;BME280;67988;60.086;30.354;2023-07-22T11:32:04;100326.84;;;22.47;41.32
78673;BME280;67988;60.086;30.354;2023-07-22T11:34:32;100354.63;;;22.69;41.00
78673;BME280;67988;60.086;30.354;2023-07-22T11:36:59;100326.69;;;21.94;40.67
78673;BME280;67988;60.086;30.354;2023-07-22T11:39:27;100349.03;;;21.68;41.12
78673;BME280;67988;60.086;30.354;2023-07-22T11:41:59;100354.22;;;21.63;40.91
78673;BME280;67988;60.086;30.354;2023-07-22T11:44:29;100335.53;;;22.23;39.70
78673;BME280;67988;60.086;30.354;2023-07-22T11:46:58;100333.78;;;23.09;37.81
78673;BME280;67988;60.086;30.354;2023-07-22T11:49:27;100358.19;;;23.42;37.50
78673;BME280;67988;60.086;30.354;2023-07-22T11:51:56;100352.13;;;23.59;35.97
78673;BME280;67988;60.086;30.354;2023-07-22T11:54:23;100354.81;;;24.17;34.99
78673;BME280;67988;60.086;30.354;2023-07-22T11:56:50;100318.13;;;24.39;34.59
78673;BME280;67988;60.086;30.354;2023-07-22T11:59:17;100327.94;;;25.46;33.60
78673;BME280;67988;60.086;30.354;2023-07-22T12:02:01;100327.31;;;26.47;31.85
78673;BME280;67988;60.086;30.354;2023-07-22T12:04:30;100307.53;;;26.21;31.48
78673;BME280;67988;60.086;30.354;2023-07-22T12:06:57;100355.91;;;25.78;32.65
78673;BME280;67988;60.086;30.354;2023-07-22T12:09:25;100344.88;;;25.91;33.31
78673;BME280;67988;60.086;30.354;2023-07-22T12:11:55;100335.78;;;26.45;31.92
78673;BME280;67988;60.086;30.354;2023-07-22T12:14:24;100334.91;;;25.97;32.43
78673;BME280;67988;60.086;30.354;2023-07-22T12:16:55;100343.28;;;26.32;31.58
78673;BME280;67988;60.086;30.354;2023-07-22T12:19:27;100319.63;;;25.77;32.56
78673;BME280;67988;60.086;30.354;2023-07-22T12:21:55;100317.06;;;25.21;33.02
78673;BME280;67988;60.086;30.354;2023-07-22T12:24:22;100345.53;;;25.68;31.96
78673;BME280;67988;60.086;30.354;2023-07-22T12:26:49;100341.94;;;25.50;32.09
78673;BME280;67988;60.086;30.354;2023-07-22T12:29:16;100325.00;;;25.66;32.41
78673;BME280;67988;60.086;30.354;2023-07-22T12:31:43;100333.13;;;25.29;32.26
78673;BME280;67988;60.086;30.354;2023-07-22T12:34:10;100333.88;;;25.61;32.05
78673;BME280;67988;60.086;30.354;2023-07-22T12:36:38;100319.09;;;26.05;31.17
78673;BME280;67988;60.086;30.354;2023-07-22T12:39:05;100357.94;;;25.64;32.24
78673;BME280;67988;60.086;30.354;2023-07-22T12:41:32;100325.66;;;26.16;31.14
78673;BME280;67988;60.086;30.354;2023-07-22T12:43:59;100323.56;;;26.89;30.43
78673;BME280;67988;60.086;30.354;2023-07-22T12:46:27;100281.97;;;27.22;30.12